createdAt,value
2022-08-11T00:01:05.109Z,4.18
2022-08-11T00:03:43.153Z,3.95
2022-08-11T00:06:13.411Z,3.80
2022-08-11T00:08:39.678Z,2.87
2022-08-11T00:11:10.234Z,3.00
2022-08-11T00:13:45.444Z,2.80
2022-08-11T00:16:20.332Z,2.60
2022-08-11T00:18:51.878Z,2.45
2022-08-11T00:21:20.192Z,2.40
2022-08-11T00:24:23.924Z,2.30
2022-08-11T00:26:52.342Z,2.33
2022-08-11T00:29:18.712Z,2.37
2022-08-11T00:31:56.166Z,2.60
2022-08-11T00:34:27.330Z,2.50
2022-08-11T00:36:59.404Z,2.40
2022-08-11T00:39:27.271Z,2.40
2022-08-11T00:42:18.720Z,2.33
2022-08-11T00:45:04.133Z,2.40
2022-08-11T00:52:33.235Z,2.50
2022-08-11T00:55:26.016Z,2.30
2022-08-11T01:04:32.184Z,2.50
2022-08-11T01:08:00.636Z,2.40
2022-08-11T01:10:57.792Z,2.90
2022-08-11T01:16:11.574Z,2.42
2022-08-11T01:24:22.581Z,2.47
2022-08-11T01:29:55.894Z,2.15
2022-08-11T01:40:44.667Z,2.33
2022-08-11T01:43:51.501Z,2.12
2022-08-11T01:48:22.656Z,2.55
2022-08-11T01:53:00.467Z,2.70
2022-08-11T01:55:40.785Z,2.50
2022-08-11T01:59:01.069Z,2.70
2022-08-11T02:04:49.902Z,2.50
2022-08-11T02:07:38.205Z,2.40
2022-08-11T02:11:04.684Z,2.28
2022-08-11T02:13:40.654Z,2.40
2022-08-11T02:17:43.567Z,2.30
2022-08-11T02:21:04.364Z,2.30
2022-08-11T02:24:06.887Z,2.20
2022-08-11T02:26:49.144Z,2.10
2022-08-11T02:30:04.344Z,2.28
2022-08-11T02:33:23.166Z,2.22
2022-08-11T02:36:06.007Z,2.30
2022-08-11T02:39:42.289Z,2.30
2022-08-11T02:43:04.070Z,2.20
2022-08-11T02:45:54.379Z,2.22
2022-08-11T02:48:55.072Z,2.30
2022-08-11T02:53:17.013Z,2.37
2022-08-11T02:58:27.220Z,2.25
2022-08-11T03:07:45.734Z,2.22
2022-08-11T03:13:56.466Z,2.00
2022-08-11T03:18:14.388Z,2.10
2022-08-11T03:22:09.961Z,2.22
2022-08-11T03:26:26.121Z,2.30
2022-08-11T03:33:28.719Z,2.60
2022-08-11T03:42:06.870Z,2.53
2022-08-11T03:45:00.558Z,2.30
2022-08-11T03:47:54.980Z,2.40
2022-08-11T03:51:44.795Z,2.70
2022-08-11T03:55:10.390Z,2.50
2022-08-11T04:05:41.686Z,2.70
2022-08-11T04:14:56.947Z,3.20
2022-08-11T04:20:50.555Z,3.95
2022-08-11T04:28:43.065Z,4.35
2022-08-11T04:31:51.320Z,8.50
2022-08-11T04:39:38.602Z,7.55
2022-08-11T04:46:18.570Z,3.90
2022-08-11T04:49:43.420Z,4.05
2022-08-11T04:52:52.441Z,6.10
2022-08-11T04:56:49.775Z,5.00
2022-08-11T05:02:17.111Z,4.32
2022-08-11T05:08:01.796Z,4.65
2022-08-11T05:12:36.716Z,3.20
2022-08-11T05:15:22.279Z,3.67
2022-08-11T05:18:22.908Z,4.35
2022-08-11T05:21:11.980Z,5.47
2022-08-11T05:24:05.561Z,6.05
2022-08-11T05:27:00.463Z,5.12
2022-08-11T05:29:59.814Z,4.87
2022-08-11T05:32:48.705Z,4.57
2022-08-11T05:35:28.330Z,4.85
2022-08-11T05:38:48.493Z,5.03
2022-08-11T05:41:33.446Z,5.10
2022-08-11T05:44:22.332Z,5.30
2022-08-11T05:47:07.452Z,5.35
2022-08-11T05:49:52.655Z,4.87
2022-08-11T05:52:42.929Z,5.82
2022-08-11T05:55:28.746Z,4.95
2022-08-11T05:57:58.480Z,5.40
2022-08-11T06:00:27.570Z,5.85
2022-08-11T06:03:00.212Z,6.87
2022-08-11T06:05:43.226Z,5.70
2022-08-11T06:08:13.013Z,6.10
2022-08-11T06:10:44.247Z,6.10
2022-08-11T06:13:14.488Z,3.78
2022-08-11T06:15:45.305Z,3.85
2022-08-11T06:18:12.151Z,3.40
2022-08-11T06:20:54.758Z,3.80
2022-08-11T06:23:25.016Z,3.80
2022-08-11T06:25:52.284Z,3.50
2022-08-11T06:28:20.964Z,3.70
2022-08-11T06:30:48.898Z,3.70
2022-08-11T06:33:37.000Z,3.60
2022-08-11T06:36:14.474Z,3.62
2022-08-11T06:40:16.023Z,3.37
2022-08-11T06:45:55.072Z,4.70
2022-08-11T06:48:22.423Z,6.75
2022-08-11T06:51:13.693Z,11.88
2022-08-11T06:54:03.259Z,5.55
2022-08-11T07:00:13.439Z,6.90
2022-08-11T07:04:50.078Z,6.72
2022-08-11T07:09:21.893Z,6.47
2022-08-11T07:12:44.812Z,9.13
2022-08-11T07:16:10.800Z,12.63
2022-08-11T07:18:59.205Z,13.25
2022-08-11T07:22:01.332Z,11.18
2022-08-11T07:25:26.887Z,20.35
2022-08-11T07:28:29.542Z,12.73
2022-08-11T07:31:01.642Z,11.50
2022-08-11T07:34:05.304Z,11.45
2022-08-11T07:36:40.046Z,26.80
2022-08-11T07:39:14.871Z,29.67
2022-08-11T07:41:41.317Z,12.95
2022-08-11T07:44:12.038Z,21.23
2022-08-11T07:47:14.641Z,13.82
2022-08-11T07:50:01.833Z,9.95
2022-08-11T07:52:34.297Z,8.38
2022-08-11T07:55:24.591Z,7.45
2022-08-11T07:58:45.644Z,12.07
2022-08-11T08:01:40.000Z,10.07
2022-08-11T08:04:27.026Z,10.82
2022-08-11T08:07:17.896Z,10.43
2022-08-11T08:10:03.342Z,9.45
2022-08-11T08:12:52.004Z,8.77
2022-08-11T08:15:38.671Z,7.65
2022-08-11T08:18:10.026Z,10.48
2022-08-11T08:20:55.074Z,18.75
2022-08-11T08:23:32.285Z,14.20
2022-08-11T08:26:04.390Z,11.88
2022-08-11T08:28:32.627Z,12.30
2022-08-11T08:30:59.496Z,12.35
2022-08-11T08:33:30.384Z,12.95
2022-08-11T08:36:16.528Z,15.43
2022-08-11T08:38:53.506Z,10.77
2022-08-11T08:41:29.903Z,14.40
2022-08-11T08:44:20.626Z,17.10
2022-08-11T08:47:03.315Z,18.15
2022-08-11T08:49:40.464Z,19.75
2022-08-11T08:52:21.679Z,40.92
2022-08-11T08:55:04.189Z,27.23
2022-08-11T08:57:32.483Z,23.00
2022-08-11T09:00:06.781Z,15.45
2022-08-11T09:02:35.909Z,16.62
2022-08-11T09:05:04.321Z,19.35
2022-08-11T09:07:39.864Z,22.23
2022-08-11T09:10:09.523Z,20.60
2022-08-11T09:12:46.170Z,19.48
2022-08-11T09:15:12.564Z,16.40
2022-08-11T09:17:47.106Z,14.57
2022-08-11T09:20:26.200Z,26.95
2022-08-11T09:26:30.946Z,39.92
2022-08-11T09:28:58.442Z,31.08
2022-08-11T09:31:26.102Z,16.37
2022-08-11T09:33:53.731Z,11.20
2022-08-11T09:36:38.634Z,9.40
2022-08-11T09:39:23.637Z,10.15
2022-08-11T09:42:01.185Z,9.15
2022-08-11T09:44:50.134Z,9.13
2022-08-11T09:47:30.036Z,11.63
2022-08-11T09:50:01.290Z,14.45
2022-08-11T09:52:30.957Z,14.27
2022-08-11T09:54:57.336Z,15.77
2022-08-11T09:57:42.307Z,15.30
2022-08-11T10:00:12.308Z,14.30
2022-08-11T10:02:43.243Z,10.45
2022-08-11T10:05:27.884Z,12.27
2022-08-11T10:07:54.291Z,18.08
2022-08-11T10:10:22.674Z,14.32
2022-08-11T10:14:04.837Z,9.60
2022-08-11T10:16:59.431Z,8.55
2022-08-11T10:19:25.679Z,9.15
2022-08-11T10:26:50.056Z,10.35
2022-08-11T10:29:36.858Z,7.65
2022-08-11T10:32:27.073Z,7.20
2022-08-11T10:34:59.026Z,7.10
2022-08-11T10:38:07.250Z,7.97
2022-08-11T10:43:02.397Z,14.45
2022-08-11T10:45:55.267Z,25.12
2022-08-11T10:48:24.836Z,23.77
2022-08-11T10:51:10.258Z,20.60
2022-08-11T10:53:57.158Z,21.37
2022-08-11T10:56:42.087Z,17.55
2022-08-11T10:59:09.253Z,18.50
2022-08-11T11:01:41.110Z,19.62
2022-08-11T11:04:15.817Z,24.08
2022-08-11T11:09:43.379Z,20.85
2022-08-11T11:13:04.313Z,13.57
2022-08-11T11:15:51.173Z,14.23
2022-08-11T11:19:00.878Z,10.52
2022-08-11T11:21:28.103Z,10.98
2022-08-11T11:24:37.071Z,10.55
2022-08-11T11:27:32.616Z,9.02
2022-08-11T11:30:09.340Z,7.72
2022-08-11T11:33:07.428Z,8.48
2022-08-11T11:35:53.431Z,9.18
2022-08-11T11:38:20.576Z,8.18
2022-08-11T11:41:24.481Z,8.20
2022-08-11T11:43:54.080Z,8.02
2022-08-11T11:46:20.422Z,8.43
2022-08-11T11:52:19.959Z,10.55
2022-08-11T11:54:53.334Z,14.65
2022-08-11T11:57:39.328Z,14.75
2022-08-11T12:00:32.828Z,11.45
2022-08-11T12:03:04.483Z,10.15
2022-08-11T12:05:33.652Z,9.38
2022-08-11T12:08:15.522Z,10.85
2022-08-11T12:13:40.408Z,11.30
2022-08-11T12:16:33.872Z,11.50
2022-08-11T12:19:16.952Z,7.30
2022-08-11T12:22:05.308Z,9.15
2022-08-11T12:24:51.747Z,9.10
2022-08-11T12:27:24.276Z,9.77
2022-08-11T12:30:09.573Z,9.63
2022-08-11T12:32:38.221Z,9.27
2022-08-11T12:35:06.256Z,11.02
2022-08-11T12:37:41.324Z,11.68
2022-08-11T12:40:42.994Z,9.82
2022-08-11T12:44:02.202Z,9.68
2022-08-11T12:46:37.310Z,9.55
2022-08-11T12:49:31.351Z,10.07
2022-08-11T12:52:11.127Z,10.85
2022-08-11T12:55:05.234Z,10.80
2022-08-11T12:57:56.751Z,13.65
2022-08-11T13:00:42.697Z,14.60
2022-08-11T13:03:28.776Z,14.73
2022-08-11T13:06:02.047Z,15.20
2022-08-11T13:08:32.729Z,12.20
2022-08-11T13:11:19.078Z,11.98
2022-08-11T13:13:53.852Z,11.77
2022-08-11T13:16:32.314Z,12.02
2022-08-11T13:19:00.955Z,12.48
2022-08-11T13:21:28.238Z,12.25
2022-08-11T13:24:01.691Z,11.60
2022-08-11T13:26:47.294Z,11.00
2022-08-11T13:29:18.807Z,11.15
2022-08-11T13:31:45.754Z,12.52
2022-08-11T13:34:12.825Z,12.05
2022-08-11T13:36:40.511Z,11.75
2022-08-11T13:39:09.224Z,11.90
2022-08-11T13:41:43.716Z,12.25
2022-08-11T13:44:12.637Z,13.70
2022-08-11T13:46:42.875Z,14.48
2022-08-11T13:49:11.539Z,14.70
2022-08-11T13:51:38.653Z,13.40
2022-08-11T13:54:18.137Z,13.18
2022-08-11T13:56:51.790Z,13.93
2022-08-11T13:59:19.894Z,14.35
2022-08-11T14:02:20.235Z,13.27
2022-08-11T14:05:05.578Z,12.05
2022-08-11T14:07:50.595Z,11.95
2022-08-11T14:10:22.245Z,12.27
2022-08-11T14:13:41.618Z,12.48
2022-08-11T14:16:30.989Z,11.30
2022-08-11T14:19:02.737Z,11.73
2022-08-11T14:21:47.611Z,11.12
2022-08-11T14:24:21.129Z,12.45
2022-08-11T14:26:51.877Z,11.95
2022-08-11T14:31:59.280Z,12.55
2022-08-11T14:34:28.391Z,12.82
2022-08-11T14:37:06.122Z,12.73
2022-08-11T14:39:36.721Z,10.68
2022-08-11T14:42:23.288Z,13.85
2022-08-11T14:45:09.795Z,10.65
2022-08-11T14:47:37.783Z,9.40
2022-08-11T14:50:10.997Z,10.55
2022-08-11T14:54:49.571Z,11.82
2022-08-11T14:57:17.302Z,11.12
2022-08-11T14:59:45.058Z,15.15
2022-08-11T15:02:29.836Z,17.27
2022-08-11T15:04:58.375Z,15.70
2022-08-11T15:07:29.572Z,15.43
2022-08-11T15:10:13.141Z,15.75
2022-08-11T15:12:41.449Z,14.87
2022-08-11T15:15:26.623Z,11.65
2022-08-11T15:17:54.108Z,9.43
2022-08-11T15:20:38.829Z,10.35
2022-08-11T15:23:23.668Z,9.82
2022-08-11T15:25:54.062Z,9.77
2022-08-11T15:28:39.020Z,9.82
2022-08-11T15:31:24.603Z,13.38
2022-08-11T15:34:13.985Z,16.00
2022-08-11T15:37:03.430Z,13.32
2022-08-11T15:43:29.330Z,19.95
2022-08-11T15:46:01.560Z,20.77
2022-08-11T15:50:09.750Z,22.85
2022-08-11T15:52:44.114Z,22.55
2022-08-11T15:55:10.719Z,21.77
2022-08-11T15:57:55.903Z,22.65
2022-08-11T16:00:40.489Z,21.75
2022-08-11T16:03:25.133Z,23.17
2022-08-11T16:06:33.399Z,23.33
2022-08-11T16:09:08.919Z,20.37
2022-08-11T16:11:47.927Z,21.65
2022-08-11T16:14:33.834Z,20.65
2022-08-11T16:17:00.129Z,21.58
2022-08-11T16:19:28.157Z,23.73
2022-08-11T16:21:55.674Z,22.80
2022-08-11T16:27:04.996Z,19.55
2022-08-11T16:29:37.865Z,16.50
2022-08-11T16:32:21.497Z,17.40
2022-08-11T16:35:21.745Z,16.90
2022-08-11T16:38:07.652Z,21.20
2022-08-11T16:40:34.039Z,24.30
2022-08-11T16:43:18.984Z,23.65
2022-08-11T16:46:03.911Z,26.62
2022-08-11T16:48:37.526Z,29.08
2022-08-11T16:51:05.937Z,26.67
2022-08-11T16:54:04.815Z,28.83
2022-08-11T16:56:47.836Z,28.02
2022-08-11T16:59:19.801Z,15.68
2022-08-11T17:02:12.321Z,15.98
2022-08-11T17:05:11.367Z,9.43
2022-08-11T17:07:57.678Z,7.97
2022-08-11T17:11:03.129Z,8.93
2022-08-11T17:14:00.317Z,10.52
2022-08-11T17:16:37.185Z,8.77
2022-08-11T17:20:39.649Z,9.70
2022-08-11T17:23:28.233Z,4.95
2022-08-11T17:25:59.635Z,3.80
2022-08-11T17:28:30.821Z,5.07
2022-08-11T17:31:22.042Z,5.60
2022-08-11T17:34:09.181Z,5.28
2022-08-11T17:36:38.496Z,4.87
2022-08-11T17:39:08.934Z,3.92
2022-08-11T17:41:54.708Z,4.37
2022-08-11T17:44:40.401Z,5.05
2022-08-11T17:47:25.689Z,5.68
2022-08-11T17:49:52.572Z,5.30
2022-08-11T17:52:37.434Z,4.80
2022-08-11T17:55:50.923Z,4.80
2022-08-11T17:58:38.852Z,4.53
2022-08-11T18:01:08.797Z,4.72
2022-08-11T18:03:40.127Z,4.60
2022-08-11T18:06:12.864Z,4.47
2022-08-11T18:09:02.532Z,3.95
2022-08-11T18:12:06.719Z,3.55
2022-08-11T18:14:57.203Z,4.20
2022-08-11T18:17:42.941Z,4.62
2022-08-11T18:20:28.284Z,4.62
2022-08-11T18:23:16.606Z,5.10
2022-08-11T18:26:07.286Z,5.97
2022-08-11T18:29:02.495Z,6.18
2022-08-11T18:31:50.350Z,6.60
2022-08-11T18:34:36.158Z,7.37
2022-08-11T18:37:27.187Z,8.23
2022-08-11T18:40:26.765Z,8.52
2022-08-11T18:43:12.934Z,8.05
2022-08-11T18:46:06.330Z,7.22
2022-08-11T18:48:53.510Z,6.72
2022-08-11T18:51:41.898Z,5.35
2022-08-11T18:54:28.386Z,4.85
2022-08-11T18:57:20.277Z,4.12
2022-08-11T19:00:06.495Z,3.67
2022-08-11T19:02:54.080Z,3.80
2022-08-11T19:06:08.361Z,3.90
2022-08-11T19:09:26.702Z,3.60
2022-08-11T19:12:11.860Z,3.55
2022-08-11T19:18:40.874Z,3.40
2022-08-11T19:21:28.605Z,3.65
2022-08-11T19:24:18.447Z,4.10
2022-08-11T19:27:05.564Z,4.10
2022-08-11T19:30:07.123Z,3.70
2022-08-11T19:33:10.131Z,3.87
2022-08-11T19:35:55.583Z,3.85
2022-08-11T19:38:42.213Z,3.33
2022-08-11T19:41:56.407Z,3.30
2022-08-11T19:44:51.185Z,3.10
2022-08-11T19:47:48.466Z,3.10
2022-08-11T19:50:43.248Z,3.70
2022-08-11T19:53:29.774Z,4.20
2022-08-11T19:56:15.648Z,5.28
2022-08-11T19:59:06.834Z,7.25
2022-08-11T20:02:01.443Z,10.10
2022-08-11T20:08:28.846Z,8.02
2022-08-11T20:11:13.790Z,6.05
2022-08-11T20:13:59.398Z,4.50
2022-08-11T20:16:44.406Z,3.83
2022-08-11T20:19:55.587Z,3.60
2022-08-11T20:22:44.171Z,3.70
2022-08-11T20:25:30.441Z,3.20
2022-08-11T20:28:16.461Z,3.37
2022-08-11T20:31:03.296Z,3.25
2022-08-11T20:33:50.903Z,4.45
2022-08-11T20:36:35.720Z,4.30
2022-08-11T20:39:21.703Z,6.78
2022-08-11T20:42:06.747Z,5.82
2022-08-11T20:44:57.087Z,4.53
2022-08-11T20:47:56.332Z,3.30
2022-08-11T20:54:12.665Z,2.60
2022-08-11T20:56:59.664Z,3.10
2022-08-11T20:59:52.821Z,2.90
2022-08-11T21:02:44.539Z,2.60
2022-08-11T21:06:08.554Z,3.10
2022-08-11T21:08:55.881Z,3.17
2022-08-11T21:11:40.906Z,3.17
2022-08-11T21:14:31.376Z,3.40
2022-08-11T21:17:26.986Z,3.28
2022-08-11T21:20:21.038Z,3.45
2022-08-11T21:23:12.307Z,3.42
2022-08-11T21:26:12.516Z,3.87
2022-08-11T21:28:57.324Z,4.00
2022-08-11T21:31:43.194Z,3.50
2022-08-11T21:34:32.094Z,3.87
2022-08-11T21:37:19.895Z,3.70
2022-08-11T21:40:07.881Z,3.40
2022-08-11T21:42:55.046Z,3.00
2022-08-11T21:45:40.080Z,2.90
2022-08-11T21:48:25.057Z,3.10
2022-08-11T21:51:09.694Z,3.40
2022-08-11T21:53:55.742Z,2.90
2022-08-11T21:56:42.007Z,2.80
2022-08-11T21:59:27.998Z,2.60
2022-08-11T22:02:13.152Z,2.50
2022-08-11T22:04:59.030Z,2.50
2022-08-11T22:07:43.845Z,2.40
2022-08-11T22:10:41.026Z,2.60
2022-08-11T22:13:31.095Z,2.50
2022-08-11T22:16:17.690Z,2.40
2022-08-11T22:19:06.158Z,2.50
2022-08-11T22:22:01.486Z,2.50
2022-08-11T22:24:51.048Z,2.58
2022-08-11T22:27:37.663Z,3.53
2022-08-11T22:30:25.216Z,3.60
2022-08-11T22:36:38.254Z,3.70
2022-08-11T22:42:14.450Z,2.95
2022-08-11T22:44:59.320Z,2.80
2022-08-11T22:47:43.861Z,2.65
2022-08-11T22:50:29.082Z,2.50
2022-08-11T22:53:14.477Z,2.87
2022-08-11T22:55:59.306Z,2.58
2022-08-11T22:58:44.515Z,2.53
2022-08-11T23:01:33.561Z,2.65
2022-08-11T23:04:19.002Z,2.78
2022-08-11T23:07:03.690Z,2.87
2022-08-11T23:09:48.687Z,2.97
2022-08-11T23:12:33.537Z,3.15
2022-08-11T23:15:18.566Z,2.75
2022-08-11T23:18:03.456Z,3.00
2022-08-11T23:20:56.639Z,2.70
2022-08-11T23:23:44.624Z,2.80
2022-08-11T23:26:29.968Z,2.80
2022-08-11T23:29:15.690Z,2.58
2022-08-11T23:32:00.699Z,2.95
2022-08-11T23:35:36.923Z,2.67
2022-08-11T23:38:25.823Z,2.60
2022-08-11T23:41:11.369Z,2.83
2022-08-11T23:43:56.240Z,2.90
2022-08-11T23:46:41.665Z,3.12
2022-08-11T23:49:27.211Z,4.15
2022-08-11T23:52:12.482Z,4.95
2022-08-11T23:54:57.943Z,5.18
2022-08-11T23:57:49.248Z,4.68
